createdAt,value
2017-10-18T00:01:14.133Z,72.65
2017-10-18T00:03:40.072Z,72.28
2017-10-18T00:06:06.025Z,70.89
2017-10-18T00:08:31.976Z,72.17
2017-10-18T00:10:57.912Z,72.16
2017-10-18T00:13:23.844Z,71.33
2017-10-18T00:15:49.812Z,72.32
2017-10-18T00:18:15.754Z,72.00
2017-10-18T00:20:41.698Z,71.30
2017-10-18T00:23:07.636Z,71.26
2017-10-18T00:25:33.584Z,71.43
2017-10-18T00:27:59.543Z,72.67
2017-10-18T00:30:25.488Z,73.84
2017-10-18T00:32:51.424Z,72.51
2017-10-18T00:35:17.367Z,71.19
2017-10-18T00:37:43.298Z,71.86
2017-10-18T00:40:09.284Z,73.09
2017-10-18T00:42:35.241Z,73.05
2017-10-18T00:45:01.199Z,72.76
2017-10-18T00:47:27.145Z,73.77
2017-10-18T00:49:53.100Z,73.19
2017-10-18T00:52:19.024Z,73.63
2017-10-18T00:54:44.983Z,73.12
2017-10-18T00:57:10.952Z,73.30
2017-10-18T00:59:36.894Z,73.75
2017-10-18T01:02:02.836Z,73.13
2017-10-18T01:04:28.784Z,73.66
2017-10-18T01:06:54.730Z,73.80
2017-10-18T01:09:20.668Z,74.54
2017-10-18T01:11:46.598Z,74.16
2017-10-18T01:14:12.596Z,73.20
2017-10-18T01:16:38.542Z,73.18
2017-10-18T01:19:04.510Z,73.34
2017-10-18T01:21:30.469Z,74.21
2017-10-18T01:23:56.399Z,73.04
2017-10-18T01:26:22.384Z,72.97
2017-10-18T01:28:48.332Z,73.21
2017-10-18T01:31:14.319Z,74.02
2017-10-18T01:33:40.275Z,74.34
2017-10-18T01:36:06.230Z,73.15
2017-10-18T01:38:32.186Z,72.91
2017-10-18T01:40:58.140Z,73.42
2017-10-18T01:43:24.115Z,73.74
2017-10-18T01:45:50.052Z,73.05
2017-10-18T01:48:16.012Z,74.07
2017-10-18T01:50:41.967Z,74.05
2017-10-18T01:53:07.943Z,73.38
2017-10-18T01:55:33.892Z,74.05
2017-10-18T01:57:59.872Z,74.36
2017-10-18T02:00:25.843Z,73.80
2017-10-18T02:02:51.776Z,73.42
2017-10-18T02:05:17.733Z,74.20
2017-10-18T02:07:43.717Z,74.77
2017-10-18T02:10:09.679Z,73.07
2017-10-18T02:12:35.623Z,73.36
2017-10-18T02:15:01.563Z,74.23
2017-10-18T02:17:27.500Z,74.43
2017-10-18T02:19:53.488Z,74.10
2017-10-18T02:22:19.419Z,75.54
2017-10-18T02:24:45.356Z,75.09
2017-10-18T02:27:11.292Z,74.70
2017-10-18T02:29:37.246Z,74.50
2017-10-18T02:32:03.204Z,73.92
2017-10-18T02:34:29.160Z,74.05
2017-10-18T02:36:55.108Z,74.36
2017-10-18T02:39:21.069Z,74.94
2017-10-18T02:41:47.009Z,74.38
2017-10-18T02:44:12.992Z,74.04
2017-10-18T02:46:38.916Z,74.95
2017-10-18T02:49:04.839Z,74.63
2017-10-18T02:51:30.756Z,74.80
2017-10-18T02:53:56.679Z,74.56
2017-10-18T02:56:22.629Z,75.23
2017-10-18T02:58:48.624Z,74.54
2017-10-18T03:01:14.552Z,74.49
2017-10-18T03:03:40.500Z,74.95
2017-10-18T03:06:06.470Z,75.27
2017-10-18T03:08:32.426Z,75.58
2017-10-18T03:10:58.371Z,74.78
2017-10-18T03:13:24.351Z,75.28
2017-10-18T03:15:50.318Z,75.28
2017-10-18T03:18:16.263Z,75.07
2017-10-18T03:20:42.211Z,74.47
2017-10-18T03:23:08.154Z,74.87
2017-10-18T03:25:34.091Z,74.46
2017-10-18T03:28:00.028Z,74.87
2017-10-18T03:30:25.982Z,74.33
2017-10-18T03:32:51.942Z,74.60
2017-10-18T03:35:17.958Z,74.33
2017-10-18T03:37:43.900Z,74.13
2017-10-18T03:40:09.837Z,75.77
2017-10-18T03:42:35.781Z,74.14
2017-10-18T03:45:01.722Z,73.85
2017-10-18T03:47:27.691Z,74.02
2017-10-18T03:49:53.659Z,73.94
2017-10-18T03:52:19.632Z,74.79
2017-10-18T03:54:45.559Z,74.93
2017-10-18T03:57:11.518Z,74.38
2017-10-18T03:59:37.454Z,75.21
2017-10-18T04:02:03.413Z,74.36
2017-10-18T04:04:29.337Z,74.92
2017-10-18T04:06:55.279Z,75.04
2017-10-18T04:09:21.227Z,74.94
2017-10-18T04:11:47.155Z,74.85
2017-10-18T04:14:13.088Z,75.73
2017-10-18T04:16:39.031Z,75.73
2017-10-18T04:19:04.967Z,75.43
2017-10-18T04:21:30.915Z,75.67
2017-10-18T04:23:56.872Z,75.43
2017-10-18T04:26:22.831Z,75.79
2017-10-18T04:28:48.793Z,74.76
2017-10-18T04:31:14.762Z,75.09
2017-10-18T04:33:40.703Z,74.29
2017-10-18T04:36:06.664Z,75.41
2017-10-18T04:38:32.615Z,75.63
2017-10-18T04:40:58.553Z,75.97
2017-10-18T04:43:24.506Z,75.09
2017-10-18T04:45:50.446Z,74.46
2017-10-18T04:48:16.375Z,74.91
2017-10-18T04:50:42.345Z,75.51
2017-10-18T04:53:08.292Z,75.33
2017-10-18T04:55:34.290Z,74.98
2017-10-18T04:58:00.239Z,74.62
2017-10-18T05:00:26.171Z,75.25
2017-10-18T05:02:52.121Z,75.10
2017-10-18T05:05:18.219Z,75.68
2017-10-18T05:07:44.178Z,75.26
2017-10-18T05:10:10.115Z,75.90
2017-10-18T05:12:36.061Z,74.93
2017-10-18T05:15:01.987Z,75.01
2017-10-18T05:17:27.954Z,75.54
2017-10-18T05:19:53.891Z,75.62
2017-10-18T05:22:19.827Z,74.80
2017-10-18T05:24:45.767Z,74.92
2017-10-18T05:27:11.740Z,74.89
2017-10-18T05:29:37.703Z,74.73
2017-10-18T05:32:03.647Z,74.66
2017-10-18T05:34:29.579Z,75.44
2017-10-18T05:36:55.511Z,75.93
2017-10-18T05:39:21.481Z,75.75
2017-10-18T05:41:47.449Z,75.86
2017-10-18T05:44:13.405Z,76.08
2017-10-18T05:46:39.331Z,76.16
2017-10-18T05:49:05.259Z,76.66
2017-10-18T05:51:31.255Z,76.32
2017-10-18T05:53:57.178Z,75.87
2017-10-18T05:56:23.147Z,75.94
2017-10-18T05:58:49.083Z,74.92
2017-10-18T06:01:15.031Z,74.97
2017-10-18T06:03:40.979Z,74.45
2017-10-18T06:06:06.947Z,74.71
2017-10-18T06:08:32.941Z,74.99
2017-10-18T06:10:58.961Z,74.88
2017-10-18T06:13:24.932Z,74.36
2017-10-18T06:15:50.886Z,74.09
2017-10-18T06:18:16.851Z,74.23
2017-10-18T06:20:42.785Z,73.93
2017-10-18T06:23:08.754Z,73.32
2017-10-18T06:25:34.717Z,73.20
2017-10-18T06:28:00.656Z,73.52
2017-10-18T06:30:26.733Z,72.71
2017-10-18T06:32:52.695Z,72.33
2017-10-18T06:35:18.651Z,72.09
2017-10-18T06:37:44.591Z,71.85
2017-10-18T06:40:10.556Z,72.22
2017-10-18T06:42:36.519Z,71.78
2017-10-18T06:45:02.475Z,71.22
2017-10-18T06:47:28.425Z,71.19
2017-10-18T06:49:54.369Z,71.56
2017-10-18T06:52:20.315Z,71.05
2017-10-18T06:54:46.244Z,71.17
2017-10-18T06:57:12.204Z,70.90
2017-10-18T06:59:38.141Z,70.04
2017-10-18T07:02:04.101Z,69.54
2017-10-18T07:04:30.046Z,69.57
2017-10-18T07:06:56.000Z,69.32
2017-10-18T07:09:21.969Z,68.86
2017-10-18T07:11:47.925Z,68.88
2017-10-18T07:14:13.950Z,69.24
2017-10-18T07:16:39.915Z,69.02
2017-10-18T07:19:05.873Z,68.65
2017-10-18T07:21:31.817Z,68.52
2017-10-18T07:23:57.759Z,68.07
2017-10-18T07:26:23.687Z,68.05
2017-10-18T07:28:49.610Z,68.28
2017-10-18T07:31:15.611Z,68.25
2017-10-18T07:33:41.600Z,67.74
2017-10-18T07:36:07.574Z,67.49
2017-10-18T07:38:33.506Z,67.53
2017-10-18T07:40:59.447Z,67.58
2017-10-18T07:43:25.405Z,67.52
2017-10-18T07:45:51.331Z,67.64
2017-10-18T07:48:17.310Z,67.91
2017-10-18T07:50:43.245Z,68.09
2017-10-18T07:53:09.191Z,67.74
2017-10-18T07:55:35.125Z,67.85
2017-10-18T07:58:01.079Z,68.03
2017-10-18T08:00:27.049Z,67.50
2017-10-18T08:02:53.025Z,67.98
2017-10-18T08:05:18.966Z,68.08
2017-10-18T08:07:44.933Z,67.81
2017-10-18T08:10:10.968Z,67.70
2017-10-18T08:12:36.962Z,67.95
2017-10-18T08:15:02.905Z,67.31
2017-10-18T08:17:28.867Z,66.42
2017-10-18T08:19:54.807Z,67.29
2017-10-18T08:22:20.758Z,65.85
2017-10-18T08:24:46.745Z,66.45
2017-10-18T08:27:12.699Z,66.17
2017-10-18T08:29:38.674Z,66.83
2017-10-18T08:32:04.646Z,65.75
2017-10-18T08:34:30.610Z,66.39
2017-10-18T08:36:56.596Z,66.17
2017-10-18T08:39:22.557Z,66.28
2017-10-18T08:41:48.546Z,67.52
2017-10-18T08:44:14.502Z,67.22
2017-10-18T08:46:40.459Z,67.67
2017-10-18T08:49:06.407Z,67.47
2017-10-18T08:51:32.365Z,68.10
2017-10-18T08:53:58.386Z,67.71
2017-10-18T08:56:24.344Z,67.70
2017-10-18T08:58:50.311Z,67.97
2017-10-18T09:01:16.270Z,68.18
2017-10-18T09:03:42.244Z,67.79
2017-10-18T09:06:08.203Z,67.31
2017-10-18T09:08:34.142Z,68.22
2017-10-18T09:11:00.074Z,68.46
2017-10-18T09:13:26.082Z,67.48
2017-10-18T09:15:52.051Z,67.71
2017-10-18T09:18:18.021Z,68.45
2017-10-18T09:20:44.020Z,68.18
2017-10-18T09:23:09.971Z,68.20
2017-10-18T09:25:35.908Z,67.71
2017-10-18T09:28:01.923Z,67.51
2017-10-18T09:30:27.886Z,67.55
2017-10-18T09:32:53.943Z,68.00
2017-10-18T09:35:19.904Z,68.14
2017-10-18T09:37:45.845Z,67.33
2017-10-18T09:40:11.785Z,67.25
2017-10-18T09:42:37.773Z,68.17
2017-10-18T09:45:03.737Z,68.27
2017-10-18T09:47:29.697Z,67.33
2017-10-18T09:49:55.652Z,67.10
2017-10-18T09:52:21.604Z,67.66
2017-10-18T09:54:47.679Z,67.80
2017-10-18T09:57:13.619Z,68.23
2017-10-18T09:59:39.562Z,67.88
2017-10-18T10:02:05.499Z,68.14
2017-10-18T10:04:31.456Z,67.81
2017-10-18T10:06:57.402Z,68.75
2017-10-18T10:09:23.341Z,68.35
2017-10-18T10:11:49.290Z,67.75
2017-10-18T10:14:15.251Z,68.06
2017-10-18T10:16:41.178Z,68.38
2017-10-18T10:19:07.130Z,68.26
2017-10-18T10:21:33.069Z,68.26
2017-10-18T10:23:59.017Z,67.60
2017-10-18T10:26:25.021Z,68.46
2017-10-18T10:28:50.986Z,68.73
2017-10-18T10:31:16.934Z,68.49
2017-10-18T10:33:42.865Z,68.99
2017-10-18T10:36:08.791Z,68.08
2017-10-18T10:38:34.832Z,69.16
2017-10-18T10:41:00.765Z,68.58
2017-10-18T10:43:26.696Z,68.48
2017-10-18T10:45:52.638Z,68.07
2017-10-18T10:48:18.582Z,68.17
2017-10-18T10:50:44.662Z,68.58
2017-10-18T10:53:10.619Z,69.54
2017-10-18T10:55:36.553Z,68.09
2017-10-18T10:58:02.480Z,68.81
2017-10-18T11:00:28.401Z,68.04
2017-10-18T11:02:54.337Z,67.62
2017-10-18T11:05:20.312Z,68.82
2017-10-18T11:07:46.274Z,67.58
2017-10-18T11:10:12.210Z,68.21
2017-10-18T11:12:38.152Z,68.60
2017-10-18T11:15:04.106Z,67.41
2017-10-18T11:17:30.083Z,68.46
2017-10-18T11:19:56.002Z,69.06
2017-10-18T11:22:21.938Z,67.75
2017-10-18T11:24:47.877Z,68.62
2017-10-18T11:27:13.834Z,68.44
2017-10-18T11:29:39.843Z,68.30
2017-10-18T11:32:05.788Z,68.38
2017-10-18T11:34:31.715Z,67.81
2017-10-18T11:36:57.652Z,68.43
2017-10-18T11:39:23.586Z,68.11
2017-10-18T11:41:49.551Z,67.75
2017-10-18T11:44:15.504Z,68.16
2017-10-18T11:46:41.451Z,68.26
2017-10-18T11:49:07.383Z,68.91
2017-10-18T11:51:33.321Z,68.87
2017-10-18T11:53:59.268Z,69.15
2017-10-18T11:56:25.487Z,68.29
2017-10-18T11:58:51.448Z,68.53
2017-10-18T12:01:17.408Z,68.79
2017-10-18T12:03:43.400Z,68.89
2017-10-18T12:06:09.361Z,68.96
2017-10-18T12:08:35.303Z,68.51
2017-10-18T12:11:01.239Z,68.84
2017-10-18T12:13:27.173Z,68.68
2017-10-18T12:15:53.339Z,68.86
2017-10-18T12:18:19.296Z,67.79
2017-10-18T12:20:45.239Z,68.65
2017-10-18T12:23:11.215Z,68.15
2017-10-18T12:25:37.194Z,68.20
2017-10-18T12:28:03.162Z,68.13
2017-10-18T12:30:29.116Z,67.81
2017-10-18T12:32:55.051Z,68.08
2017-10-18T12:35:20.997Z,68.18
2017-10-18T12:37:46.932Z,68.51
2017-10-18T12:40:12.925Z,68.73
2017-10-18T12:42:38.880Z,68.75
2017-10-18T12:45:04.808Z,68.57
2017-10-18T12:47:30.798Z,68.75
2017-10-18T12:49:56.758Z,68.82
2017-10-18T12:52:22.712Z,68.08
2017-10-18T12:54:48.673Z,68.55
2017-10-18T12:57:14.620Z,68.22
2017-10-18T12:59:40.599Z,68.35
2017-10-18T13:02:06.606Z,68.42
2017-10-18T13:04:32.597Z,68.53
2017-10-18T13:06:58.534Z,68.54
2017-10-18T13:09:24.483Z,68.33
2017-10-18T13:11:50.425Z,68.07
2017-10-18T13:14:16.690Z,67.42
2017-10-18T13:16:42.693Z,66.68
2017-10-18T13:19:08.655Z,66.15
2017-10-18T13:21:34.602Z,65.51
2017-10-18T13:24:00.541Z,65.37
2017-10-18T13:26:26.498Z,64.76
2017-10-18T13:28:52.460Z,66.04
2017-10-18T13:31:18.440Z,66.74
2017-10-18T13:33:44.425Z,65.20
2017-10-18T13:36:10.360Z,63.25
2017-10-18T13:38:36.330Z,62.71
2017-10-18T13:41:02.295Z,64.08
2017-10-18T13:43:28.309Z,63.20
2017-10-18T13:45:54.234Z,63.09
2017-10-18T13:48:20.173Z,63.64
2017-10-18T13:50:46.102Z,63.91
2017-10-18T13:53:12.082Z,64.69
2017-10-18T13:55:38.086Z,64.75
2017-10-18T13:58:04.073Z,64.44
2017-10-18T14:00:30.021Z,64.11
2017-10-18T14:02:55.988Z,64.13
2017-10-18T14:05:21.931Z,64.56
2017-10-18T14:07:47.864Z,65.43
2017-10-18T14:10:13.799Z,65.68
2017-10-18T14:12:39.753Z,65.61
2017-10-18T14:15:05.735Z,65.75
2017-10-18T14:17:31.820Z,66.94
2017-10-18T14:19:57.857Z,66.23
2017-10-18T14:22:23.791Z,65.79
2017-10-18T14:24:49.749Z,66.39
2017-10-18T14:27:16.018Z,66.15
2017-10-18T14:29:42.003Z,65.69
2017-10-18T14:32:07.937Z,65.64
2017-10-18T14:34:34.090Z,65.89
2017-10-18T14:37:00.041Z,66.46
2017-10-18T14:39:25.993Z,66.74
2017-10-18T14:41:51.978Z,66.38
2017-10-18T14:44:17.953Z,66.74
2017-10-18T14:46:43.901Z,66.88
2017-10-18T14:49:09.856Z,67.03
2017-10-18T14:51:35.824Z,67.07
2017-10-18T14:54:01.762Z,67.18
2017-10-18T14:56:27.704Z,67.49
2017-10-18T14:58:53.653Z,67.61
2017-10-18T15:01:19.589Z,67.62
2017-10-18T15:03:45.552Z,67.42
2017-10-18T15:06:11.549Z,67.91
2017-10-18T15:08:37.493Z,67.97
2017-10-18T15:11:03.459Z,67.65
2017-10-18T15:13:29.415Z,68.05
2017-10-18T15:15:55.434Z,68.34
2017-10-18T15:18:21.390Z,68.32
2017-10-18T15:20:47.431Z,68.32
2017-10-18T15:23:13.441Z,68.02
2017-10-18T15:25:39.518Z,68.06
2017-10-18T15:28:05.473Z,68.16
2017-10-18T15:30:31.452Z,68.47
2017-10-18T15:32:57.441Z,68.48
2017-10-18T15:35:23.404Z,68.81
2017-10-18T15:37:49.399Z,68.71
2017-10-18T15:40:15.380Z,68.73
2017-10-18T15:42:41.379Z,68.97
2017-10-18T15:45:07.468Z,69.45
2017-10-18T15:47:33.541Z,69.12
2017-10-18T15:49:59.554Z,69.01
2017-10-18T15:52:25.536Z,69.16
2017-10-18T15:54:51.494Z,68.97
2017-10-18T15:57:17.643Z,69.12
2017-10-18T15:59:43.601Z,69.49
2017-10-18T16:02:09.590Z,69.55
2017-10-18T16:04:35.545Z,69.32
2017-10-18T16:07:01.527Z,69.01
2017-10-18T16:09:27.591Z,69.65
2017-10-18T16:11:53.581Z,69.83
2017-10-18T16:14:19.544Z,69.74
2017-10-18T16:16:45.527Z,69.79
2017-10-18T16:19:11.454Z,69.59
2017-10-18T16:21:39.427Z,69.88
2017-10-18T16:24:05.375Z,69.95
2017-10-18T16:26:31.332Z,69.90
2017-10-18T16:28:57.339Z,70.15
2017-10-18T16:31:24.355Z,70.34
2017-10-18T16:36:26.468Z,69.48
2017-10-18T16:38:52.413Z,69.28
2017-10-18T16:41:18.348Z,69.96
2017-10-18T16:43:44.487Z,70.21
2017-10-18T16:46:10.456Z,69.52
2017-10-18T16:48:36.401Z,70.50
2017-10-18T16:51:02.377Z,70.29
2017-10-18T16:53:28.325Z,70.49
2017-10-18T16:55:54.303Z,70.71
2017-10-18T16:58:20.285Z,70.58
2017-10-18T17:00:46.238Z,71.25
2017-10-18T17:03:12.303Z,70.91
2017-10-18T17:05:38.259Z,70.95
2017-10-18T17:08:04.219Z,71.87
2017-10-18T17:10:30.149Z,70.69
2017-10-18T17:12:56.124Z,70.56
2017-10-18T17:15:22.082Z,70.80
2017-10-18T17:17:48.038Z,71.16
2017-10-18T17:20:14.018Z,71.30
2017-10-18T17:22:40.066Z,70.75
2017-10-18T17:25:06.034Z,71.10
2017-10-18T17:27:31.992Z,70.92
2017-10-18T17:29:58.032Z,71.67
2017-10-18T17:32:24.041Z,71.72
2017-10-18T17:34:50.052Z,72.11
2017-10-18T17:37:16.040Z,71.45
2017-10-18T17:39:42.061Z,71.82
2017-10-18T17:42:08.315Z,71.12
2017-10-18T17:44:34.277Z,70.90
2017-10-18T17:47:00.982Z,71.88
2017-10-18T17:49:27.045Z,71.90
2017-10-18T17:51:52.987Z,71.51
2017-10-18T17:54:18.992Z,71.38
2017-10-18T17:56:44.936Z,72.48
2017-10-18T17:59:10.895Z,72.67
2017-10-18T18:01:36.850Z,72.20
2017-10-18T18:04:02.799Z,72.08
2017-10-18T18:06:28.805Z,73.20
2017-10-18T18:08:54.769Z,72.38
2017-10-18T18:11:20.738Z,72.05
2017-10-18T18:13:46.678Z,71.80
2017-10-18T18:16:12.639Z,72.86
2017-10-18T18:18:38.566Z,73.45
2017-10-18T18:21:04.543Z,72.63
2017-10-18T18:23:30.485Z,73.04
2017-10-18T18:25:56.429Z,73.21
2017-10-18T18:28:22.423Z,72.49
2017-10-18T18:30:49.980Z,73.01
2017-10-18T18:33:15.911Z,72.04
2017-10-18T18:35:41.891Z,72.37
2017-10-18T18:38:07.853Z,73.29
2017-10-18T18:40:34.939Z,72.83
2017-10-18T18:43:00.924Z,73.79
2017-10-18T18:45:27.109Z,72.93
2017-10-18T18:47:53.088Z,72.81
2017-10-18T18:50:19.030Z,73.43
2017-10-18T18:52:44.997Z,74.58
2017-10-18T18:55:11.564Z,73.33
2017-10-18T18:57:37.569Z,74.36
2017-10-18T19:00:03.578Z,73.77
2017-10-18T19:02:29.606Z,73.79
2017-10-18T19:04:55.555Z,73.16
2017-10-18T19:07:21.515Z,73.46
2017-10-18T19:09:47.464Z,74.44
2017-10-18T19:12:13.493Z,73.56
2017-10-18T19:14:39.517Z,73.78
2017-10-18T19:17:05.839Z,74.02
2017-10-18T19:19:31.785Z,73.88
2017-10-18T19:21:57.705Z,74.05
2017-10-18T19:24:23.677Z,73.94
2017-10-18T19:26:49.611Z,74.33
2017-10-18T19:29:15.596Z,74.82
2017-10-18T19:31:41.547Z,74.56
2017-10-18T19:34:07.500Z,73.73
2017-10-18T19:36:33.472Z,74.16
2017-10-18T19:38:59.434Z,74.16
2017-10-18T19:41:25.388Z,74.62
2017-10-18T19:43:51.340Z,74.87
2017-10-18T19:46:19.398Z,75.20
2017-10-18T19:48:45.341Z,75.37
2017-10-18T19:51:11.342Z,74.91
2017-10-18T19:53:38.564Z,75.61
2017-10-18T19:56:04.511Z,75.02
2017-10-18T19:58:30.440Z,75.54
2017-10-18T20:00:56.413Z,75.34
2017-10-18T20:03:22.456Z,76.15
2017-10-18T20:05:48.433Z,76.84
2017-10-18T20:08:14.392Z,75.76
2017-10-18T20:10:40.446Z,74.98
2017-10-18T20:13:06.387Z,75.21
2017-10-18T20:15:32.336Z,75.17
2017-10-18T20:17:58.358Z,75.57
2017-10-18T20:20:24.309Z,75.23
2017-10-18T20:22:50.298Z,75.19
2017-10-18T20:25:16.267Z,74.66
2017-10-18T20:27:42.330Z,75.14
2017-10-18T20:30:08.306Z,75.21
2017-10-18T20:32:34.371Z,75.85
2017-10-18T20:35:00.320Z,75.31
2017-10-18T20:37:26.268Z,75.51
2017-10-18T20:39:52.233Z,76.23
2017-10-18T20:42:18.192Z,75.32
2017-10-18T20:44:44.138Z,75.55
2017-10-18T20:47:10.115Z,75.71
2017-10-18T20:49:36.082Z,76.05
2017-10-18T20:52:02.194Z,75.84
2017-10-18T20:54:28.156Z,76.40
2017-10-18T20:56:54.093Z,76.28
2017-10-18T20:59:20.055Z,76.68
2017-10-18T21:01:46.076Z,76.23
2017-10-18T21:04:12.980Z,75.92
2017-10-18T21:06:39.021Z,76.47
2017-10-18T21:09:05.008Z,75.50
2017-10-18T21:11:30.979Z,76.06
2017-10-18T21:13:56.949Z,76.02
2017-10-18T21:16:23.004Z,75.98
2017-10-18T21:18:48.942Z,75.79
2017-10-18T21:21:14.916Z,75.64
2017-10-18T21:23:40.906Z,75.57
2017-10-18T21:26:06.882Z,75.30
2017-10-18T21:28:32.899Z,74.95
2017-10-18T21:30:58.842Z,74.80
2017-10-18T21:33:24.780Z,76.22
2017-10-18T21:35:50.740Z,76.38
2017-10-18T21:38:16.696Z,75.36
2017-10-18T21:40:42.640Z,74.63
2017-10-18T21:43:08.642Z,74.20
2017-10-18T21:45:34.600Z,74.77
2017-10-18T21:48:00.560Z,74.22
2017-10-18T21:50:26.592Z,74.04
2017-10-18T21:52:52.594Z,75.03
2017-10-18T21:55:18.540Z,77.22
2017-10-18T21:57:44.486Z,76.61
2017-10-18T22:00:10.494Z,77.02
2017-10-18T22:02:36.486Z,77.07
2017-10-18T22:05:02.456Z,76.84
2017-10-18T22:07:28.423Z,75.61
2017-10-18T22:09:54.446Z,75.86
2017-10-18T22:12:20.454Z,77.45
2017-10-18T22:14:46.430Z,78.00
2017-10-18T22:17:12.375Z,77.33
2017-10-18T22:19:38.378Z,77.10
2017-10-18T22:22:04.321Z,77.25
2017-10-18T22:24:30.293Z,76.99
2017-10-18T22:26:56.242Z,76.76
2017-10-18T22:29:22.192Z,77.63
2017-10-18T22:31:48.181Z,76.55
2017-10-18T22:34:14.134Z,77.77
2017-10-18T22:36:40.095Z,77.74
2017-10-18T22:39:06.039Z,76.65
2017-10-18T22:41:32.008Z,77.28
2017-10-18T22:43:57.967Z,76.98
2017-10-18T22:46:23.912Z,77.22
2017-10-18T22:48:49.858Z,76.99
2017-10-18T22:51:15.926Z,78.31
2017-10-18T22:53:41.896Z,77.71
2017-10-18T22:56:07.850Z,77.15
2017-10-18T22:58:33.790Z,76.61
2017-10-18T23:00:59.773Z,77.40
2017-10-18T23:03:25.751Z,77.65
2017-10-18T23:05:51.705Z,76.89
2017-10-18T23:08:17.658Z,77.22
2017-10-18T23:10:43.618Z,77.19
2017-10-18T23:13:09.562Z,77.26
2017-10-18T23:15:35.527Z,76.77
2017-10-18T23:18:01.461Z,77.58
2017-10-18T23:20:27.419Z,76.63
2017-10-18T23:22:53.367Z,77.61
2017-10-18T23:25:19.354Z,76.99
2017-10-18T23:27:45.295Z,77.33
2017-10-18T23:30:11.266Z,77.09
2017-10-18T23:32:37.221Z,77.35
2017-10-18T23:35:03.161Z,77.82
2017-10-18T23:37:29.140Z,77.12
2017-10-18T23:39:55.119Z,76.40
2017-10-18T23:42:21.059Z,77.85
2017-10-18T23:44:47.075Z,78.01
2017-10-18T23:47:13.023Z,77.37
2017-10-18T23:49:38.969Z,77.33
2017-10-18T23:52:04.971Z,76.83
2017-10-18T23:54:30.945Z,78.11
2017-10-18T23:56:56.916Z,77.55
2017-10-18T23:59:22.868Z,77.27
